sensor_id;sensor_type;location;lat;lon;timestamp;temperature;humidity
13591;DHT22;6866;50.778;7.206;2022-08-18T00:00:31;20.70;69.00
13591;DHT22;6866;50.778;7.206;2022-08-18T00:03:04;20.60;69.50
13591;DHT22;6866;50.778;7.206;2022-08-18T00:05:30;20.50;69.80
13591;DHT22;6866;50.778;7.206;2022-08-18T00:07:56;20.60;69.50
13591;DHT22;6866;50.778;7.206;2022-08-18T00:10:22;20.60;69.50
13591;DHT22;6866;50.778;7.206;2022-08-18T00:12:48;20.60;69.70
13591;DHT22;6866;50.778;7.206;2022-08-18T00:15:15;20.50;70.20
13591;DHT22;6866;50.778;7.206;2022-08-18T00:17:41;20.30;71.00
13591;DHT22;6866;50.778;7.206;2022-08-18T00:20:11;20.20;71.50
13591;DHT22;6866;50.778;7.206;2022-08-18T00:22:37;20.30;71.40
13591;DHT22;6866;50.778;7.206;2022-08-18T00:25:05;20.30;71.30
13591;DHT22;6866;50.778;7.206;2022-08-18T00:27:31;20.40;71.20
13591;DHT22;6866;50.778;7.206;2022-08-18T00:29:59;20.40;71.20
13591;DHT22;6866;50.778;7.206;2022-08-18T00:32:28;20.40;71.30
13591;DHT22;6866;50.778;7.206;2022-08-18T00:34:55;20.40;71.20
13591;DHT22;6866;50.778;7.206;2022-08-18T00:37:21;20.40;71.20
13591;DHT22;6866;50.778;7.206;2022-08-18T00:39:50;20.40;70.80
13591;DHT22;6866;50.778;7.206;2022-08-18T00:42:27;20.40;71.00
13591;DHT22;6866;50.778;7.206;2022-08-18T00:44:52;20.40;71.40
13591;DHT22;6866;50.778;7.206;2022-08-18T00:47:19;20.40;71.20
13591;DHT22;6866;50.778;7.206;2022-08-18T00:49:46;20.50;71.00
13591;DHT22;6866;50.778;7.206;2022-08-18T00:52:14;20.40;71.10
13591;DHT22;6866;50.778;7.206;2022-08-18T00:54:41;20.50;71.70
13591;DHT22;6866;50.778;7.206;2022-08-18T00:57:08;20.40;71.20
13591;DHT22;6866;50.778;7.206;2022-08-18T00:59:36;20.40;71.30
13591;DHT22;6866;50.778;7.206;2022-08-18T01:04:47;20.00;71.80
13591;DHT22;6866;50.778;7.206;2022-08-18T01:07:21;19.70;73.00
13591;DHT22;6866;50.778;7.206;2022-08-18T01:09:50;19.70;72.80
13591;DHT22;6866;50.778;7.206;2022-08-18T01:12:17;19.70;72.80
13591;DHT22;6866;50.778;7.206;2022-08-18T01:14:43;19.80;72.40
13591;DHT22;6866;50.778;7.206;2022-08-18T01:17:09;19.80;72.70
13591;DHT22;6866;50.778;7.206;2022-08-18T01:19:53;19.80;72.70
13591;DHT22;6866;50.778;7.206;2022-08-18T01:25:15;19.70;73.40
13591;DHT22;6866;50.778;7.206;2022-08-18T01:28:00;19.70;73.30
13591;DHT22;6866;50.778;7.206;2022-08-18T01:30:29;19.70;73.70
13591;DHT22;6866;50.778;7.206;2022-08-18T01:32:56;19.60;73.60
13591;DHT22;6866;50.778;7.206;2022-08-18T01:35:24;19.50;74.00
13591;DHT22;6866;50.778;7.206;2022-08-18T01:37:53;19.50;74.20
13591;DHT22;6866;50.778;7.206;2022-08-18T01:40:21;19.40;74.60
13591;DHT22;6866;50.778;7.206;2022-08-18T01:42:48;19.50;74.30
13591;DHT22;6866;50.778;7.206;2022-08-18T01:45:16;19.50;74.20
13591;DHT22;6866;50.778;7.206;2022-08-18T01:47:42;19.40;74.80
13591;DHT22;6866;50.778;7.206;2022-08-18T01:50:09;19.30;76.20
13591;DHT22;6866;50.778;7.206;2022-08-18T01:52:36;19.40;75.10
13591;DHT22;6866;50.778;7.206;2022-08-18T01:55:03;19.40;74.90
13591;DHT22;6866;50.778;7.206;2022-08-18T01:57:29;19.40;74.60
13591;DHT22;6866;50.778;7.206;2022-08-18T01:59:55;19.40;74.60
13591;DHT22;6866;50.778;7.206;2022-08-18T02:02:25;19.40;74.60
13591;DHT22;6866;50.778;7.206;2022-08-18T02:04:54;19.40;73.90
13591;DHT22;6866;50.778;7.206;2022-08-18T02:07:21;19.30;73.80
13591;DHT22;6866;50.778;7.206;2022-08-18T02:09:46;19.20;73.70
13591;DHT22;6866;50.778;7.206;2022-08-18T02:12:12;19.20;73.80
13591;DHT22;6866;50.778;7.206;2022-08-18T02:14:39;19.10;74.30
13591;DHT22;6866;50.778;7.206;2022-08-18T02:17:07;18.80;75.90
13591;DHT22;6866;50.778;7.206;2022-08-18T02:19:42;18.80;76.20
13591;DHT22;6866;50.778;7.206;2022-08-18T02:22:11;18.80;76.40
13591;DHT22;6866;50.778;7.206;2022-08-18T02:24:37;18.70;76.10
13591;DHT22;6866;50.778;7.206;2022-08-18T02:27:04;18.80;75.90
13591;DHT22;6866;50.778;7.206;2022-08-18T02:29:30;18.90;75.90
13591;DHT22;6866;50.778;7.206;2022-08-18T02:31:56;18.80;75.60
13591;DHT22;6866;50.778;7.206;2022-08-18T02:34:21;18.70;75.40
13591;DHT22;6866;50.778;7.206;2022-08-18T02:36:47;18.70;75.70
13591;DHT22;6866;50.778;7.206;2022-08-18T02:39:13;18.50;76.80
13591;DHT22;6866;50.778;7.206;2022-08-18T02:41:38;18.40;77.20
13591;DHT22;6866;50.778;7.206;2022-08-18T02:44:06;18.50;76.90
13591;DHT22;6866;50.778;7.206;2022-08-18T02:46:33;18.50;76.70
13591;DHT22;6866;50.778;7.206;2022-08-18T02:48:59;18.70;76.20
13591;DHT22;6866;50.778;7.206;2022-08-18T02:51:25;18.70;76.10
13591;DHT22;6866;50.778;7.206;2022-08-18T02:53:50;18.60;76.50
13591;DHT22;6866;50.778;7.206;2022-08-18T02:56:22;18.50;76.70
13591;DHT22;6866;50.778;7.206;2022-08-18T02:59:00;18.40;77.20
13591;DHT22;6866;50.778;7.206;2022-08-18T03:01:31;18.30;77.90
13591;DHT22;6866;50.778;7.206;2022-08-18T03:03:58;18.40;77.40
13591;DHT22;6866;50.778;7.206;2022-08-18T03:06:25;18.40;77.50
13591;DHT22;6866;50.778;7.206;2022-08-18T03:08:52;18.50;77.10
13591;DHT22;6866;50.778;7.206;2022-08-18T03:11:27;18.40;77.50
13591;DHT22;6866;50.778;7.206;2022-08-18T03:13:53;18.40;78.50
13591;DHT22;6866;50.778;7.206;2022-08-18T03:16:19;18.50;77.30
13591;DHT22;6866;50.778;7.206;2022-08-18T03:18:46;18.50;77.30
13591;DHT22;6866;50.778;7.206;2022-08-18T03:21:16;18.60;77.10
13591;DHT22;6866;50.778;7.206;2022-08-18T03:23:42;18.50;77.40
13591;DHT22;6866;50.778;7.206;2022-08-18T03:26:11;18.50;77.50
13591;DHT22;6866;50.778;7.206;2022-08-18T03:28:43;18.60;76.80
13591;DHT22;6866;50.778;7.206;2022-08-18T03:31:10;18.60;76.80
13591;DHT22;6866;50.778;7.206;2022-08-18T03:33:37;18.60;76.70
13591;DHT22;6866;50.778;7.206;2022-08-18T03:36:07;18.60;76.80
13591;DHT22;6866;50.778;7.206;2022-08-18T03:38:33;18.60;76.00
13591;DHT22;6866;50.778;7.206;2022-08-18T03:40:59;18.60;76.70
13591;DHT22;6866;50.778;7.206;2022-08-18T03:43:25;18.60;76.70
13591;DHT22;6866;50.778;7.206;2022-08-18T03:45:52;18.60;76.50
13591;DHT22;6866;50.778;7.206;2022-08-18T03:48:19;18.70;76.40
13591;DHT22;6866;50.778;7.206;2022-08-18T03:50:45;18.70;76.10
13591;DHT22;6866;50.778;7.206;2022-08-18T03:53:12;18.70;76.30
13591;DHT22;6866;50.778;7.206;2022-08-18T03:55:41;18.70;75.90
13591;DHT22;6866;50.778;7.206;2022-08-18T03:58:07;18.70;76.10
13591;DHT22;6866;50.778;7.206;2022-08-18T04:00:36;18.60;76.50
13591;DHT22;6866;50.778;7.206;2022-08-18T04:03:02;18.50;77.30
13591;DHT22;6866;50.778;7.206;2022-08-18T04:05:28;18.40;77.60
13591;DHT22;6866;50.778;7.206;2022-08-18T04:07:54;18.20;78.50
13591;DHT22;6866;50.778;7.206;2022-08-18T04:10:24;18.20;78.90
13591;DHT22;6866;50.778;7.206;2022-08-18T04:12:50;18.30;78.50
13591;DHT22;6866;50.778;7.206;2022-08-18T04:15:17;18.20;79.50
13591;DHT22;6866;50.778;7.206;2022-08-18T04:17:42;18.30;80.00
13591;DHT22;6866;50.778;7.206;2022-08-18T04:20:11;18.40;79.10
13591;DHT22;6866;50.778;7.206;2022-08-18T04:22:37;18.30;79.60
13591;DHT22;6866;50.778;7.206;2022-08-18T04:25:03;18.30;79.70
13591;DHT22;6866;50.778;7.206;2022-08-18T04:27:29;18.40;79.30
13591;DHT22;6866;50.778;7.206;2022-08-18T04:29:55;18.50;79.00
13591;DHT22;6866;50.778;7.206;2022-08-18T04:32:23;18.60;78.80
13591;DHT22;6866;50.778;7.206;2022-08-18T04:34:49;18.70;78.60
13591;DHT22;6866;50.778;7.206;2022-08-18T04:37:15;18.70;78.50
13591;DHT22;6866;50.778;7.206;2022-08-18T04:39:43;18.70;79.20
13591;DHT22;6866;50.778;7.206;2022-08-18T04:42:09;18.80;78.30
13591;DHT22;6866;50.778;7.206;2022-08-18T04:44:35;18.60;79.10
13591;DHT22;6866;50.778;7.206;2022-08-18T04:47:03;18.60;78.80
13591;DHT22;6866;50.778;7.206;2022-08-18T04:49:29;18.70;78.50
13591;DHT22;6866;50.778;7.206;2022-08-18T04:51:56;18.70;78.20
13591;DHT22;6866;50.778;7.206;2022-08-18T04:54:41;18.80;78.20
13591;DHT22;6866;50.778;7.206;2022-08-18T04:57:09;18.70;78.10
13591;DHT22;6866;50.778;7.206;2022-08-18T04:59:35;18.90;77.70
13591;DHT22;6866;50.778;7.206;2022-08-18T05:02:02;18.90;77.90
13591;DHT22;6866;50.778;7.206;2022-08-18T05:04:36;18.90;78.50
13591;DHT22;6866;50.778;7.206;2022-08-18T05:07:08;19.00;77.90
13591;DHT22;6866;50.778;7.206;2022-08-18T05:09:33;19.10;77.30
13591;DHT22;6866;50.778;7.206;2022-08-18T05:12:01;19.10;77.30
13591;DHT22;6866;50.778;7.206;2022-08-18T05:14:28;19.00;77.50
13591;DHT22;6866;50.778;7.206;2022-08-18T05:16:57;19.00;77.80
13591;DHT22;6866;50.778;7.206;2022-08-18T05:19:23;19.10;77.70
13591;DHT22;6866;50.778;7.206;2022-08-18T05:21:51;19.20;77.20
13591;DHT22;6866;50.778;7.206;2022-08-18T05:24:18;19.10;77.60
13591;DHT22;6866;50.778;7.206;2022-08-18T05:26:44;19.10;77.60
13591;DHT22;6866;50.778;7.206;2022-08-18T05:29:10;19.10;78.00
13591;DHT22;6866;50.778;7.206;2022-08-18T05:31:36;19.10;77.90
13591;DHT22;6866;50.778;7.206;2022-08-18T05:34:01;19.10;77.70
13591;DHT22;6866;50.778;7.206;2022-08-18T05:44:17;19.40;77.00
13591;DHT22;6866;50.778;7.206;2022-08-18T05:46:54;19.50;76.70
13591;DHT22;6866;50.778;7.206;2022-08-18T05:49:21;19.60;76.70
13591;DHT22;6866;50.778;7.206;2022-08-18T05:51:58;19.70;76.50
13591;DHT22;6866;50.778;7.206;2022-08-18T05:54:26;19.80;76.30
13591;DHT22;6866;50.778;7.206;2022-08-18T05:57:19;19.80;77.00
13591;DHT22;6866;50.778;7.206;2022-08-18T05:59:46;19.90;77.10
13591;DHT22;6866;50.778;7.206;2022-08-18T06:04:56;20.00;77.60
13591;DHT22;6866;50.778;7.206;2022-08-18T06:07:40;19.90;77.80
13591;DHT22;6866;50.778;7.206;2022-08-18T06:10:08;19.90;78.50
13591;DHT22;6866;50.778;7.206;2022-08-18T06:12:55;19.90;78.80
13591;DHT22;6866;50.778;7.206;2022-08-18T06:18:28;20.00;78.50
13591;DHT22;6866;50.778;7.206;2022-08-18T06:23:54;20.00;78.40
13591;DHT22;6866;50.778;7.206;2022-08-18T06:26:36;20.00;78.40
13591;DHT22;6866;50.778;7.206;2022-08-18T06:29:28;20.00;78.50
13591;DHT22;6866;50.778;7.206;2022-08-18T06:35:28;20.00;78.80
13591;DHT22;6866;50.778;7.206;2022-08-18T06:41:20;20.00;79.20
13591;DHT22;6866;50.778;7.206;2022-08-18T06:44:07;20.00;79.70
13591;DHT22;6866;50.778;7.206;2022-08-18T06:46:47;20.00;79.70
13591;DHT22;6866;50.778;7.206;2022-08-18T06:49:24;20.00;79.50
13591;DHT22;6866;50.778;7.206;2022-08-18T06:51:52;20.10;79.60
13591;DHT22;6866;50.778;7.206;2022-08-18T06:56:50;20.00;79.40
13591;DHT22;6866;50.778;7.206;2022-08-18T06:59:24;20.00;80.00
13591;DHT22;6866;50.778;7.206;2022-08-18T07:02:36;20.10;79.30
13591;DHT22;6866;50.778;7.206;2022-08-18T07:04:56;20.10;79.40
13591;DHT22;6866;50.778;7.206;2022-08-18T07:07:36;20.00;79.50
13591;DHT22;6866;50.778;7.206;2022-08-18T07:10:34;20.10;79.70
13591;DHT22;6866;50.778;7.206;2022-08-18T07:15:39;20.10;79.40
13591;DHT22;6866;50.778;7.206;2022-08-18T07:18:06;20.10;79.10
13591;DHT22;6866;50.778;7.206;2022-08-18T07:20:47;20.10;79.10
13591;DHT22;6866;50.778;7.206;2022-08-18T07:23:30;20.20;78.90
13591;DHT22;6866;50.778;7.206;2022-08-18T07:28:42;20.20;79.00
13591;DHT22;6866;50.778;7.206;2022-08-18T07:34:03;20.00;79.50
13591;DHT22;6866;50.778;7.206;2022-08-18T07:36:37;20.10;79.30
13591;DHT22;6866;50.778;7.206;2022-08-18T07:39:11;20.10;79.60
13591;DHT22;6866;50.778;7.206;2022-08-18T07:42:49;20.20;79.00
13591;DHT22;6866;50.778;7.206;2022-08-18T07:45:03;20.40;78.80
13591;DHT22;6866;50.778;7.206;2022-08-18T07:47:41;20.40;78.20
13591;DHT22;6866;50.778;7.206;2022-08-18T07:50:07;20.50;77.90
13591;DHT22;6866;50.778;7.206;2022-08-18T07:52:42;20.70;77.10
13591;DHT22;6866;50.778;7.206;2022-08-18T07:55:30;20.70;76.70
13591;DHT22;6866;50.778;7.206;2022-08-18T07:57:59;20.70;76.40
13591;DHT22;6866;50.778;7.206;2022-08-18T08:00:50;20.80;76.00
13591;DHT22;6866;50.778;7.206;2022-08-18T08:03:41;20.80;76.50
13591;DHT22;6866;50.778;7.206;2022-08-18T08:08:54;20.80;76.20
13591;DHT22;6866;50.778;7.206;2022-08-18T08:11:41;20.80;76.40
13591;DHT22;6866;50.778;7.206;2022-08-18T08:16:50;20.70;76.90
13591;DHT22;6866;50.778;7.206;2022-08-18T08:22:03;20.80;77.00
13591;DHT22;6866;50.778;7.206;2022-08-18T08:24:48;20.80;76.80
13591;DHT22;6866;50.778;7.206;2022-08-18T08:30:14;20.80;76.60
13591;DHT22;6866;50.778;7.206;2022-08-18T08:35:26;20.70;77.60
13591;DHT22;6866;50.778;7.206;2022-08-18T08:41:02;20.80;76.70
13591;DHT22;6866;50.778;7.206;2022-08-18T08:43:33;20.80;76.60
13591;DHT22;6866;50.778;7.206;2022-08-18T08:46:18;20.80;76.90
13591;DHT22;6866;50.778;7.206;2022-08-18T08:49:00;20.80;76.70
13591;DHT22;6866;50.778;7.206;2022-08-18T08:51:49;20.90;76.60
13591;DHT22;6866;50.778;7.206;2022-08-18T08:54:24;20.70;76.40
13591;DHT22;6866;50.778;7.206;2022-08-18T08:56:54;20.60;77.40
13591;DHT22;6866;50.778;7.206;2022-08-18T08:59:21;20.60;77.50
13591;DHT22;6866;50.778;7.206;2022-08-18T09:04:51;20.70;76.70
13591;DHT22;6866;50.778;7.206;2022-08-18T09:07:55;20.80;76.80
13591;DHT22;6866;50.778;7.206;2022-08-18T09:24:23;20.90;75.30
13591;DHT22;6866;50.778;7.206;2022-08-18T09:29:25;20.80;75.70
13591;DHT22;6866;50.778;7.206;2022-08-18T09:40:17;21.20;74.40
13591;DHT22;6866;50.778;7.206;2022-08-18T09:43:17;21.10;74.50
13591;DHT22;6866;50.778;7.206;2022-08-18T09:48:28;21.30;73.80
13591;DHT22;6866;50.778;7.206;2022-08-18T09:51:14;21.20;74.50
13591;DHT22;6866;50.778;7.206;2022-08-18T10:02:10;21.50;73.20
13591;DHT22;6866;50.778;7.206;2022-08-18T10:04:37;21.60;72.80
13591;DHT22;6866;50.778;7.206;2022-08-18T10:07:35;21.60;72.20
13591;DHT22;6866;50.778;7.206;2022-08-18T10:20:55;22.20;70.70
13591;DHT22;6866;50.778;7.206;2022-08-18T10:29:09;21.90;70.20
13591;DHT22;6866;50.778;7.206;2022-08-18T10:37:28;22.10;69.90
13591;DHT22;6866;50.778;7.206;2022-08-18T10:39:59;22.30;69.50
13591;DHT22;6866;50.778;7.206;2022-08-18T10:42:30;22.40;69.20
13591;DHT22;6866;50.778;7.206;2022-08-18T10:45:18;22.60;68.50
13591;DHT22;6866;50.778;7.206;2022-08-18T10:47:58;22.70;67.50
13591;DHT22;6866;50.778;7.206;2022-08-18T10:50:27;22.90;66.70
13591;DHT22;6866;50.778;7.206;2022-08-18T10:55:52;23.10;66.00
13591;DHT22;6866;50.778;7.206;2022-08-18T10:59:17;23.20;65.10
13591;DHT22;6866;50.778;7.206;2022-08-18T11:04:27;23.50;63.90
13591;DHT22;6866;50.778;7.206;2022-08-18T11:07:11;23.50;63.70
13591;DHT22;6866;50.778;7.206;2022-08-18T11:09:39;23.40;63.80
13591;DHT22;6866;50.778;7.206;2022-08-18T11:12:06;23.30;64.00
13591;DHT22;6866;50.778;7.206;2022-08-18T11:14:46;23.50;63.20
13591;DHT22;6866;50.778;7.206;2022-08-18T11:20:00;23.90;61.60
13591;DHT22;6866;50.778;7.206;2022-08-18T11:22:32;23.90;61.30
13591;DHT22;6866;50.778;7.206;2022-08-18T11:24:59;23.80;61.90
13591;DHT22;6866;50.778;7.206;2022-08-18T11:27:28;24.00;61.10
13591;DHT22;6866;50.778;7.206;2022-08-18T11:29:58;24.00;61.00
13591;DHT22;6866;50.778;7.206;2022-08-18T11:32:33;24.40;60.20
13591;DHT22;6866;50.778;7.206;2022-08-18T11:35:16;24.50;59.10
13591;DHT22;6866;50.778;7.206;2022-08-18T11:37:44;24.50;59.40
13591;DHT22;6866;50.778;7.206;2022-08-18T11:42:56;24.70;58.70
13591;DHT22;6866;50.778;7.206;2022-08-18T11:45:25;24.80;57.40
13591;DHT22;6866;50.778;7.206;2022-08-18T11:48:01;24.60;57.00
13591;DHT22;6866;50.778;7.206;2022-08-18T11:50:33;24.60;57.40
13591;DHT22;6866;50.778;7.206;2022-08-18T11:53:49;25.00;57.30
13591;DHT22;6866;50.778;7.206;2022-08-18T12:01:06;24.50;57.60
13591;DHT22;6866;50.778;7.206;2022-08-18T12:06:19;24.80;57.30
13591;DHT22;6866;50.778;7.206;2022-08-18T12:08:50;25.10;57.20
13591;DHT22;6866;50.778;7.206;2022-08-18T12:11:18;24.80;57.20
13591;DHT22;6866;50.778;7.206;2022-08-18T12:13:45;24.80;57.60
13591;DHT22;6866;50.778;7.206;2022-08-18T12:18:37;24.50;57.30
13591;DHT22;6866;50.778;7.206;2022-08-18T12:21:03;24.40;57.20
13591;DHT22;6866;50.778;7.206;2022-08-18T12:23:31;24.20;58.80
13591;DHT22;6866;50.778;7.206;2022-08-18T12:25:57;24.40;58.30
13591;DHT22;6866;50.778;7.206;2022-08-18T12:28:23;24.40;58.00
13591;DHT22;6866;50.778;7.206;2022-08-18T12:30:49;24.50;57.50
13591;DHT22;6866;50.778;7.206;2022-08-18T12:33:15;24.60;56.90
13591;DHT22;6866;50.778;7.206;2022-08-18T12:35:41;24.90;56.60
13591;DHT22;6866;50.778;7.206;2022-08-18T12:38:06;25.00;55.60
13591;DHT22;6866;50.778;7.206;2022-08-18T12:40:32;25.20;54.90
13591;DHT22;6866;50.778;7.206;2022-08-18T12:42:57;25.30;54.50
13591;DHT22;6866;50.778;7.206;2022-08-18T12:45:23;25.50;53.90
13591;DHT22;6866;50.778;7.206;2022-08-18T12:47:50;25.50;53.90
13591;DHT22;6866;50.778;7.206;2022-08-18T12:50:15;25.60;53.80
13591;DHT22;6866;50.778;7.206;2022-08-18T12:52:41;25.70;53.60
13591;DHT22;6866;50.778;7.206;2022-08-18T12:55:07;25.70;53.40
13591;DHT22;6866;50.778;7.206;2022-08-18T12:57:34;25.40;53.70
13591;DHT22;6866;50.778;7.206;2022-08-18T12:59:59;25.90;53.00
13591;DHT22;6866;50.778;7.206;2022-08-18T13:02:25;26.00;52.40
13591;DHT22;6866;50.778;7.206;2022-08-18T13:04:50;26.10;52.00
13591;DHT22;6866;50.778;7.206;2022-08-18T13:07:16;26.20;52.00
13591;DHT22;6866;50.778;7.206;2022-08-18T13:09:42;26.10;52.00
13591;DHT22;6866;50.778;7.206;2022-08-18T13:12:08;25.90;52.50
13591;DHT22;6866;50.778;7.206;2022-08-18T13:14:34;26.00;52.40
13591;DHT22;6866;50.778;7.206;2022-08-18T13:17:00;26.00;52.20
13591;DHT22;6866;50.778;7.206;2022-08-18T13:19:26;26.00;52.30
13591;DHT22;6866;50.778;7.206;2022-08-18T13:21:52;25.90;52.50
13591;DHT22;6866;50.778;7.206;2022-08-18T13:24:18;26.20;52.50
13591;DHT22;6866;50.778;7.206;2022-08-18T13:26:46;26.30;51.70
13591;DHT22;6866;50.778;7.206;2022-08-18T13:29:13;26.40;51.80
13591;DHT22;6866;50.778;7.206;2022-08-18T13:31:39;26.30;51.20
13591;DHT22;6866;50.778;7.206;2022-08-18T13:34:05;26.10;51.40
13591;DHT22;6866;50.778;7.206;2022-08-18T13:36:34;26.30;51.00
13591;DHT22;6866;50.778;7.206;2022-08-18T13:39:19;26.60;50.80
13591;DHT22;6866;50.778;7.206;2022-08-18T13:41:47;26.40;50.60
13591;DHT22;6866;50.778;7.206;2022-08-18T13:44:14;26.30;50.50
13591;DHT22;6866;50.778;7.206;2022-08-18T13:46:42;26.40;50.90
13591;DHT22;6866;50.778;7.206;2022-08-18T13:49:18;26.10;50.90
13591;DHT22;6866;50.778;7.206;2022-08-18T13:51:45;26.30;50.70
13591;DHT22;6866;50.778;7.206;2022-08-18T13:54:19;26.60;50.30
13591;DHT22;6866;50.778;7.206;2022-08-18T13:56:45;26.60;50.10
13591;DHT22;6866;50.778;7.206;2022-08-18T13:59:11;26.70;50.00
13591;DHT22;6866;50.778;7.206;2022-08-18T14:01:37;26.80;49.30
13591;DHT22;6866;50.778;7.206;2022-08-18T14:04:03;26.60;49.00
13591;DHT22;6866;50.778;7.206;2022-08-18T14:06:28;26.30;50.20
13591;DHT22;6866;50.778;7.206;2022-08-18T14:08:54;26.60;50.60
13591;DHT22;6866;50.778;7.206;2022-08-18T14:11:24;26.60;49.80
13591;DHT22;6866;50.778;7.206;2022-08-18T14:13:52;26.70;49.30
13591;DHT22;6866;50.778;7.206;2022-08-18T14:16:18;26.60;49.40
13591;DHT22;6866;50.778;7.206;2022-08-18T14:18:46;26.60;49.10
13591;DHT22;6866;50.778;7.206;2022-08-18T14:21:31;26.70;48.80
13591;DHT22;6866;50.778;7.206;2022-08-18T14:24:16;26.70;49.30
13591;DHT22;6866;50.778;7.206;2022-08-18T14:27:04;26.40;49.00
13591;DHT22;6866;50.778;7.206;2022-08-18T14:29:30;26.40;49.40
13591;DHT22;6866;50.778;7.206;2022-08-18T14:31:56;26.30;49.30
13591;DHT22;6866;50.778;7.206;2022-08-18T14:34:21;26.10;50.60
13591;DHT22;6866;50.778;7.206;2022-08-18T14:36:47;26.30;49.60
13591;DHT22;6866;50.778;7.206;2022-08-18T14:39:12;26.30;49.40
13591;DHT22;6866;50.778;7.206;2022-08-18T14:41:38;26.40;49.20
13591;DHT22;6866;50.778;7.206;2022-08-18T14:44:04;26.50;48.60
13591;DHT22;6866;50.778;7.206;2022-08-18T14:46:29;26.60;48.40
13591;DHT22;6866;50.778;7.206;2022-08-18T14:48:55;26.50;48.10
13591;DHT22;6866;50.778;7.206;2022-08-18T14:51:20;26.60;48.10
13591;DHT22;6866;50.778;7.206;2022-08-18T14:53:46;26.70;48.00
13591;DHT22;6866;50.778;7.206;2022-08-18T14:56:12;26.80;47.70
13591;DHT22;6866;50.778;7.206;2022-08-18T14:58:37;26.80;47.50
13591;DHT22;6866;50.778;7.206;2022-08-18T15:01:07;26.80;47.70
13591;DHT22;6866;50.778;7.206;2022-08-18T15:03:34;26.40;48.00
13591;DHT22;6866;50.778;7.206;2022-08-18T15:06:02;26.30;48.30
13591;DHT22;6866;50.778;7.206;2022-08-18T15:08:29;26.30;48.70
13591;DHT22;6866;50.778;7.206;2022-08-18T15:10:55;26.60;48.50
13591;DHT22;6866;50.778;7.206;2022-08-18T15:13:22;26.70;48.90
13591;DHT22;6866;50.778;7.206;2022-08-18T15:15:47;26.70;47.70
13591;DHT22;6866;50.778;7.206;2022-08-18T15:18:13;26.80;47.30
13591;DHT22;6866;50.778;7.206;2022-08-18T15:20:39;26.80;47.80
13591;DHT22;6866;50.778;7.206;2022-08-18T15:23:23;26.60;47.10
13591;DHT22;6866;50.778;7.206;2022-08-18T15:26:09;26.60;47.70
13591;DHT22;6866;50.778;7.206;2022-08-18T15:28:35;26.80;47.90
13591;DHT22;6866;50.778;7.206;2022-08-18T15:31:01;26.90;47.20
13591;DHT22;6866;50.778;7.206;2022-08-18T15:33:26;26.80;47.40
13591;DHT22;6866;50.778;7.206;2022-08-18T15:35:53;26.70;47.70
13591;DHT22;6866;50.778;7.206;2022-08-18T15:38:21;26.60;47.10
13591;DHT22;6866;50.778;7.206;2022-08-18T15:40:53;26.60;47.20
13591;DHT22;6866;50.778;7.206;2022-08-18T15:43:19;26.60;47.20
13591;DHT22;6866;50.778;7.206;2022-08-18T15:45:46;26.60;47.40
13591;DHT22;6866;50.778;7.206;2022-08-18T15:48:17;26.60;47.60
13591;DHT22;6866;50.778;7.206;2022-08-18T15:50:44;26.40;47.70
13591;DHT22;6866;50.778;7.206;2022-08-18T15:53:14;26.30;47.70
13591;DHT22;6866;50.778;7.206;2022-08-18T15:55:40;26.20;48.70
13591;DHT22;6866;50.778;7.206;2022-08-18T15:58:07;26.20;48.50
13591;DHT22;6866;50.778;7.206;2022-08-18T16:00:33;26.20;47.70
13591;DHT22;6866;50.778;7.206;2022-08-18T16:03:03;26.10;47.30
13591;DHT22;6866;50.778;7.206;2022-08-18T16:05:36;26.10;47.70
13591;DHT22;6866;50.778;7.206;2022-08-18T16:08:04;25.90;48.00
13591;DHT22;6866;50.778;7.206;2022-08-18T16:10:32;25.90;48.50
13591;DHT22;6866;50.778;7.206;2022-08-18T16:12:58;25.90;48.70
13591;DHT22;6866;50.778;7.206;2022-08-18T16:15:26;25.90;48.60
13591;DHT22;6866;50.778;7.206;2022-08-18T16:17:53;26.10;48.40
13591;DHT22;6866;50.778;7.206;2022-08-18T16:20:20;26.20;48.20
13591;DHT22;6866;50.778;7.206;2022-08-18T16:22:48;26.10;47.70
13591;DHT22;6866;50.778;7.206;2022-08-18T16:25:14;26.10;48.20
13591;DHT22;6866;50.778;7.206;2022-08-18T16:27:40;26.10;48.30
13591;DHT22;6866;50.778;7.206;2022-08-18T16:30:12;26.10;48.90
13591;DHT22;6866;50.778;7.206;2022-08-18T16:32:39;26.10;47.70
13591;DHT22;6866;50.778;7.206;2022-08-18T16:35:05;26.00;47.90
13591;DHT22;6866;50.778;7.206;2022-08-18T16:37:30;25.90;47.60
13591;DHT22;6866;50.778;7.206;2022-08-18T16:39:56;25.90;48.20
13591;DHT22;6866;50.778;7.206;2022-08-18T16:42:22;25.90;48.60
13591;DHT22;6866;50.778;7.206;2022-08-18T16:44:47;26.00;48.20
13591;DHT22;6866;50.778;7.206;2022-08-18T16:47:14;25.90;48.30
13591;DHT22;6866;50.778;7.206;2022-08-18T16:49:42;25.80;48.30
13591;DHT22;6866;50.778;7.206;2022-08-18T16:52:10;25.90;48.60
13591;DHT22;6866;50.778;7.206;2022-08-18T16:54:35;25.90;48.30
13591;DHT22;6866;50.778;7.206;2022-08-18T16:57:01;25.80;48.60
13591;DHT22;6866;50.778;7.206;2022-08-18T16:59:27;25.70;48.90
13591;DHT22;6866;50.778;7.206;2022-08-18T17:02:11;25.70;48.30
13591;DHT22;6866;50.778;7.206;2022-08-18T17:04:55;25.70;48.60
13591;DHT22;6866;50.778;7.206;2022-08-18T17:07:26;25.60;48.40
13591;DHT22;6866;50.778;7.206;2022-08-18T17:09:52;25.70;48.20
13591;DHT22;6866;50.778;7.206;2022-08-18T17:12:18;25.80;48.30
13591;DHT22;6866;50.778;7.206;2022-08-18T17:14:43;25.80;48.20
13591;DHT22;6866;50.778;7.206;2022-08-18T17:17:09;25.80;48.30
13591;DHT22;6866;50.778;7.206;2022-08-18T17:19:34;25.70;48.50
13591;DHT22;6866;50.778;7.206;2022-08-18T17:22:02;25.70;48.40
13591;DHT22;6866;50.778;7.206;2022-08-18T17:24:28;25.70;48.20
13591;DHT22;6866;50.778;7.206;2022-08-18T17:27:08;25.50;48.50
13591;DHT22;6866;50.778;7.206;2022-08-18T17:29:53;25.50;48.10
13591;DHT22;6866;50.778;7.206;2022-08-18T17:32:30;25.50;48.60
13591;DHT22;6866;50.778;7.206;2022-08-18T17:35:05;25.30;48.60
13591;DHT22;6866;50.778;7.206;2022-08-18T17:37:33;25.40;48.60
13591;DHT22;6866;50.778;7.206;2022-08-18T17:40:12;25.40;48.60
13591;DHT22;6866;50.778;7.206;2022-08-18T17:42:40;25.30;49.10
13591;DHT22;6866;50.778;7.206;2022-08-18T17:45:10;25.20;49.40
13591;DHT22;6866;50.778;7.206;2022-08-18T17:50:24;25.20;49.40
13591;DHT22;6866;50.778;7.206;2022-08-18T17:53:09;25.10;49.50
13591;DHT22;6866;50.778;7.206;2022-08-18T17:55:40;25.00;49.70
13591;DHT22;6866;50.778;7.206;2022-08-18T17:58:38;25.00;50.00
13591;DHT22;6866;50.778;7.206;2022-08-18T18:01:10;25.00;50.20
13591;DHT22;6866;50.778;7.206;2022-08-18T18:03:36;24.90;50.10
13591;DHT22;6866;50.778;7.206;2022-08-18T18:06:30;24.80;50.30
13591;DHT22;6866;50.778;7.206;2022-08-18T18:09:31;24.80;50.70
13591;DHT22;6866;50.778;7.206;2022-08-18T18:11:55;24.70;50.80
13591;DHT22;6866;50.778;7.206;2022-08-18T18:14:32;24.70;50.90
13591;DHT22;6866;50.778;7.206;2022-08-18T18:19:32;24.60;51.30
13591;DHT22;6866;50.778;7.206;2022-08-18T18:22:27;24.60;51.50
13591;DHT22;6866;50.778;7.206;2022-08-18T18:25:01;24.50;51.60
13591;DHT22;6866;50.778;7.206;2022-08-18T18:35:21;24.40;52.10
13591;DHT22;6866;50.778;7.206;2022-08-18T18:37:49;24.40;52.20